sensor_id;sensor_type;location;lat;lon;timestamp;temperature;humidity
26254;DHT22;53339;51.378;0.094;2023-06-22T00:00:26;17.90;77.30
26254;DHT22;53339;51.378;0.094;2023-06-22T00:02:54;17.80;77.30
26254;DHT22;53339;51.378;0.094;2023-06-22T00:05:22;17.80;77.30
26254;DHT22;53339;51.378;0.094;2023-06-22T00:07:50;17.70;77.30
26254;DHT22;53339;51.378;0.094;2023-06-22T00:10:17;17.70;77.30
26254;DHT22;53339;51.378;0.094;2023-06-22T00:12:45;17.70;77.40
26254;DHT22;53339;51.378;0.094;2023-06-22T00:15:13;17.70;77.40
26254;DHT22;53339;51.378;0.094;2023-06-22T00:17:40;17.70;77.50
26254;DHT22;53339;51.378;0.094;2023-06-22T00:20:08;17.60;77.40
26254;DHT22;53339;51.378;0.094;2023-06-22T00:22:37;17.70;77.50
26254;DHT22;53339;51.378;0.094;2023-06-22T00:25:07;17.60;77.50
26254;DHT22;53339;51.378;0.094;2023-06-22T00:27:35;17.60;77.50
26254;DHT22;53339;51.378;0.094;2023-06-22T00:30:07;17.60;77.60
26254;DHT22;53339;51.378;0.094;2023-06-22T00:32:34;17.60;77.50
26254;DHT22;53339;51.378;0.094;2023-06-22T00:35:02;17.50;77.40
26254;DHT22;53339;51.378;0.094;2023-06-22T00:37:30;17.50;77.40
26254;DHT22;53339;51.378;0.094;2023-06-22T00:39:59;17.40;77.50
26254;DHT22;53339;51.378;0.094;2023-06-22T00:42:26;17.40;77.80
26254;DHT22;53339;51.378;0.094;2023-06-22T00:44:54;17.40;78.00
26254;DHT22;53339;51.378;0.094;2023-06-22T00:47:24;17.30;78.20
26254;DHT22;53339;51.378;0.094;2023-06-22T00:49:52;17.20;78.20
26254;DHT22;53339;51.378;0.094;2023-06-22T00:52:21;17.20;78.20
26254;DHT22;53339;51.378;0.094;2023-06-22T00:54:56;17.20;78.40
26254;DHT22;53339;51.378;0.094;2023-06-22T00:57:24;17.20;78.70
26254;DHT22;53339;51.378;0.094;2023-06-22T00:59:56;17.10;78.70
26254;DHT22;53339;51.378;0.094;2023-06-22T01:02:23;17.10;78.60
26254;DHT22;53339;51.378;0.094;2023-06-22T01:04:51;17.10;78.70
26254;DHT22;53339;51.378;0.094;2023-06-22T01:07:33;17.10;78.70
26254;DHT22;53339;51.378;0.094;2023-06-22T01:10:18;17.00;78.90
26254;DHT22;53339;51.378;0.094;2023-06-22T01:12:52;17.00;78.90
26254;DHT22;53339;51.378;0.094;2023-06-22T01:15:25;17.00;78.90
26254;DHT22;53339;51.378;0.094;2023-06-22T01:17:56;17.00;78.90
26254;DHT22;53339;51.378;0.094;2023-06-22T01:20:25;16.90;79.00
26254;DHT22;53339;51.378;0.094;2023-06-22T01:25:31;16.90;78.90
26254;DHT22;53339;51.378;0.094;2023-06-22T01:30:45;16.90;78.90
26254;DHT22;53339;51.378;0.094;2023-06-22T01:33:14;16.90;78.90
26254;DHT22;53339;51.378;0.094;2023-06-22T01:35:44;16.80;79.00
26254;DHT22;53339;51.378;0.094;2023-06-22T01:38:12;16.80;79.00
26254;DHT22;53339;51.378;0.094;2023-06-22T01:40:41;16.90;79.00
26254;DHT22;53339;51.378;0.094;2023-06-22T01:43:09;16.80;79.00
26254;DHT22;53339;51.378;0.094;2023-06-22T01:45:36;16.80;78.90
26254;DHT22;53339;51.378;0.094;2023-06-22T01:48:04;16.80;78.90
26254;DHT22;53339;51.378;0.094;2023-06-22T01:50:35;16.80;78.90
26254;DHT22;53339;51.378;0.094;2023-06-22T01:53:03;16.70;78.90
26254;DHT22;53339;51.378;0.094;2023-06-22T01:55:30;16.80;78.90
26254;DHT22;53339;51.378;0.094;2023-06-22T01:57:58;16.70;78.90
26254;DHT22;53339;51.378;0.094;2023-06-22T02:00:27;16.70;78.90
26254;DHT22;53339;51.378;0.094;2023-06-22T02:03:13;16.70;78.90
26254;DHT22;53339;51.378;0.094;2023-06-22T02:05:56;16.70;78.80
26254;DHT22;53339;51.378;0.094;2023-06-22T02:08:29;16.60;78.70
26254;DHT22;53339;51.378;0.094;2023-06-22T02:11:00;16.60;78.80
26254;DHT22;53339;51.378;0.094;2023-06-22T02:13:29;16.50;78.80
26254;DHT22;53339;51.378;0.094;2023-06-22T02:15:58;16.40;78.90
26254;DHT22;53339;51.378;0.094;2023-06-22T02:18:25;16.40;79.00
26254;DHT22;53339;51.378;0.094;2023-06-22T02:20:53;16.30;79.10
26254;DHT22;53339;51.378;0.094;2023-06-22T02:23:22;16.30;79.10
26254;DHT22;53339;51.378;0.094;2023-06-22T02:25:50;16.30;79.10
26254;DHT22;53339;51.378;0.094;2023-06-22T02:28:18;16.20;79.20
26254;DHT22;53339;51.378;0.094;2023-06-22T02:30:46;16.30;79.30
26254;DHT22;53339;51.378;0.094;2023-06-22T02:33:13;16.30;79.20
26254;DHT22;53339;51.378;0.094;2023-06-22T02:35:41;16.30;79.20
26254;DHT22;53339;51.378;0.094;2023-06-22T02:38:14;16.30;79.10
26254;DHT22;53339;51.378;0.094;2023-06-22T02:40:42;16.20;79.10
26254;DHT22;53339;51.378;0.094;2023-06-22T02:43:10;16.20;79.20
26254;DHT22;53339;51.378;0.094;2023-06-22T02:45:38;16.20;79.20
26254;DHT22;53339;51.378;0.094;2023-06-22T02:48:06;16.20;79.20
26254;DHT22;53339;51.378;0.094;2023-06-22T02:50:34;16.20;79.20
26254;DHT22;53339;51.378;0.094;2023-06-22T02:53:02;16.20;79.20
26254;DHT22;53339;51.378;0.094;2023-06-22T02:55:35;16.20;79.20
26254;DHT22;53339;51.378;0.094;2023-06-22T02:58:03;16.20;79.10
26254;DHT22;53339;51.378;0.094;2023-06-22T03:00:35;16.10;79.10
26254;DHT22;53339;51.378;0.094;2023-06-22T03:03:02;16.00;79.10
26254;DHT22;53339;51.378;0.094;2023-06-22T03:05:30;16.00;79.10
26254;DHT22;53339;51.378;0.094;2023-06-22T03:08:00;15.90;79.20
26254;DHT22;53339;51.378;0.094;2023-06-22T03:10:32;15.80;79.30
26254;DHT22;53339;51.378;0.094;2023-06-22T03:13:00;15.90;79.40
26254;DHT22;53339;51.378;0.094;2023-06-22T03:15:27;15.90;79.40
26254;DHT22;53339;51.378;0.094;2023-06-22T03:17:57;15.80;79.40
26254;DHT22;53339;51.378;0.094;2023-06-22T03:20:24;15.80;79.40
26254;DHT22;53339;51.378;0.094;2023-06-22T03:22:54;15.80;79.50
26254;DHT22;53339;51.378;0.094;2023-06-22T03:25:23;15.80;79.50
26254;DHT22;53339;51.378;0.094;2023-06-22T03:27:51;15.70;79.50
26254;DHT22;53339;51.378;0.094;2023-06-22T03:30:19;15.70;79.50
26254;DHT22;53339;51.378;0.094;2023-06-22T03:32:46;15.70;79.50
26254;DHT22;53339;51.378;0.094;2023-06-22T03:35:14;15.60;79.50
26254;DHT22;53339;51.378;0.094;2023-06-22T03:37:42;15.60;79.60
26254;DHT22;53339;51.378;0.094;2023-06-22T03:40:11;15.50;79.70
26254;DHT22;53339;51.378;0.094;2023-06-22T03:42:40;15.50;79.80
26254;DHT22;53339;51.378;0.094;2023-06-22T03:45:09;15.40;80.00
26254;DHT22;53339;51.378;0.094;2023-06-22T03:47:37;15.50;80.10
26254;DHT22;53339;51.378;0.094;2023-06-22T03:50:05;15.50;80.30
26254;DHT22;53339;51.378;0.094;2023-06-22T03:52:33;15.50;80.30
26254;DHT22;53339;51.378;0.094;2023-06-22T03:55:01;15.60;80.30
26254;DHT22;53339;51.378;0.094;2023-06-22T03:57:30;15.70;80.20
26254;DHT22;53339;51.378;0.094;2023-06-22T03:59:58;15.70;80.10
26254;DHT22;53339;51.378;0.094;2023-06-22T04:02:26;15.70;80.00
26254;DHT22;53339;51.378;0.094;2023-06-22T04:04:54;15.70;79.90
26254;DHT22;53339;51.378;0.094;2023-06-22T04:07:22;15.70;79.90
26254;DHT22;53339;51.378;0.094;2023-06-22T04:09:50;15.70;79.90
26254;DHT22;53339;51.378;0.094;2023-06-22T04:12:17;15.70;79.90
26254;DHT22;53339;51.378;0.094;2023-06-22T04:14:45;15.70;79.80
26254;DHT22;53339;51.378;0.094;2023-06-22T04:17:13;15.70;79.80
26254;DHT22;53339;51.378;0.094;2023-06-22T04:19:42;15.60;79.80
26254;DHT22;53339;51.378;0.094;2023-06-22T04:22:09;15.60;79.90
26254;DHT22;53339;51.378;0.094;2023-06-22T04:24:37;15.60;80.00
26254;DHT22;53339;51.378;0.094;2023-06-22T04:27:05;15.60;80.10
26254;DHT22;53339;51.378;0.094;2023-06-22T04:29:33;15.60;80.20
26254;DHT22;53339;51.378;0.094;2023-06-22T04:32:01;15.70;80.20
26254;DHT22;53339;51.378;0.094;2023-06-22T04:34:32;15.70;80.10
26254;DHT22;53339;51.378;0.094;2023-06-22T04:37:03;15.70;80.00
26254;DHT22;53339;51.378;0.094;2023-06-22T04:39:30;15.80;80.00
26254;DHT22;53339;51.378;0.094;2023-06-22T04:41:59;15.70;80.00
26254;DHT22;53339;51.378;0.094;2023-06-22T04:44:29;15.70;80.00
26254;DHT22;53339;51.378;0.094;2023-06-22T04:47:01;15.70;80.10
26254;DHT22;53339;51.378;0.094;2023-06-22T04:49:31;15.70;80.20
26254;DHT22;53339;51.378;0.094;2023-06-22T04:52:05;15.70;80.30
26254;DHT22;53339;51.378;0.094;2023-06-22T04:54:34;15.80;80.30
26254;DHT22;53339;51.378;0.094;2023-06-22T04:57:03;15.80;80.20
26254;DHT22;53339;51.378;0.094;2023-06-22T04:59:31;15.90;80.20
26254;DHT22;53339;51.378;0.094;2023-06-22T05:02:00;15.80;80.10
26254;DHT22;53339;51.378;0.094;2023-06-22T05:04:29;15.80;80.20
26254;DHT22;53339;51.378;0.094;2023-06-22T05:07:01;15.90;80.40
26254;DHT22;53339;51.378;0.094;2023-06-22T05:09:32;16.00;80.40
26254;DHT22;53339;51.378;0.094;2023-06-22T05:12:02;16.10;80.40
26254;DHT22;53339;51.378;0.094;2023-06-22T05:14:30;16.10;80.30
26254;DHT22;53339;51.378;0.094;2023-06-22T05:16:58;16.20;80.20
26254;DHT22;53339;51.378;0.094;2023-06-22T05:19:28;16.20;80.30
26254;DHT22;53339;51.378;0.094;2023-06-22T05:22:01;16.40;80.30
26254;DHT22;53339;51.378;0.094;2023-06-22T05:24:29;16.50;80.40
26254;DHT22;53339;51.378;0.094;2023-06-22T05:26:56;16.60;80.40
26254;DHT22;53339;51.378;0.094;2023-06-22T05:29:24;16.70;80.30
26254;DHT22;53339;51.378;0.094;2023-06-22T05:31:52;16.80;80.20
26254;DHT22;53339;51.378;0.094;2023-06-22T05:34:20;16.90;80.20
26254;DHT22;53339;51.378;0.094;2023-06-22T05:36:47;17.00;80.10
26254;DHT22;53339;51.378;0.094;2023-06-22T05:39:15;17.10;80.00
26254;DHT22;53339;51.378;0.094;2023-06-22T05:41:44;17.20;79.90
26254;DHT22;53339;51.378;0.094;2023-06-22T05:44:12;17.20;79.80
26254;DHT22;53339;51.378;0.094;2023-06-22T05:46:42;17.20;79.80
26254;DHT22;53339;51.378;0.094;2023-06-22T05:49:14;17.20;79.90
26254;DHT22;53339;51.378;0.094;2023-06-22T05:51:42;17.30;79.90
26254;DHT22;53339;51.378;0.094;2023-06-22T05:54:10;17.30;79.90
26254;DHT22;53339;51.378;0.094;2023-06-22T05:56:40;17.40;79.90
26254;DHT22;53339;51.378;0.094;2023-06-22T05:59:08;17.50;80.00
26254;DHT22;53339;51.378;0.094;2023-06-22T06:01:36;17.60;80.00
26254;DHT22;53339;51.378;0.094;2023-06-22T06:04:04;17.60;80.00
26254;DHT22;53339;51.378;0.094;2023-06-22T06:06:32;17.70;80.00
26254;DHT22;53339;51.378;0.094;2023-06-22T06:09:03;17.70;80.00
26254;DHT22;53339;51.378;0.094;2023-06-22T06:11:31;17.70;80.00
26254;DHT22;53339;51.378;0.094;2023-06-22T06:13:59;17.80;80.00
26254;DHT22;53339;51.378;0.094;2023-06-22T06:16:28;17.80;80.10
26254;DHT22;53339;51.378;0.094;2023-06-22T06:18:56;17.90;80.10
26254;DHT22;53339;51.378;0.094;2023-06-22T06:21:25;18.00;80.10
26254;DHT22;53339;51.378;0.094;2023-06-22T06:23:58;18.10;80.00
26254;DHT22;53339;51.378;0.094;2023-06-22T06:26:26;18.10;80.00
26254;DHT22;53339;51.378;0.094;2023-06-22T06:28:57;18.10;79.90
26254;DHT22;53339;51.378;0.094;2023-06-22T06:31:25;18.20;79.90
26254;DHT22;53339;51.378;0.094;2023-06-22T06:33:55;18.20;79.90
26254;DHT22;53339;51.378;0.094;2023-06-22T06:36:23;18.20;79.80
26254;DHT22;53339;51.378;0.094;2023-06-22T06:38:50;18.20;79.80
26254;DHT22;53339;51.378;0.094;2023-06-22T06:41:19;18.20;79.80
26254;DHT22;53339;51.378;0.094;2023-06-22T06:43:47;18.20;79.70
26254;DHT22;53339;51.378;0.094;2023-06-22T06:46:15;18.20;79.70
26254;DHT22;53339;51.378;0.094;2023-06-22T06:48:43;18.20;79.80
26254;DHT22;53339;51.378;0.094;2023-06-22T06:51:10;18.20;79.80
26254;DHT22;53339;51.378;0.094;2023-06-22T06:53:38;18.30;79.80
26254;DHT22;53339;51.378;0.094;2023-06-22T06:56:06;18.30;79.70
26254;DHT22;53339;51.378;0.094;2023-06-22T06:58:34;18.30;79.70
26254;DHT22;53339;51.378;0.094;2023-06-22T07:01:02;18.40;79.80
26254;DHT22;53339;51.378;0.094;2023-06-22T07:03:30;18.40;79.70
26254;DHT22;53339;51.378;0.094;2023-06-22T07:05:59;18.40;79.80
26254;DHT22;53339;51.378;0.094;2023-06-22T07:08:27;18.50;79.80
26254;DHT22;53339;51.378;0.094;2023-06-22T07:10:55;18.60;79.60
26254;DHT22;53339;51.378;0.094;2023-06-22T07:13:23;18.70;79.50
26254;DHT22;53339;51.378;0.094;2023-06-22T07:15:50;18.70;79.50
26254;DHT22;53339;51.378;0.094;2023-06-22T07:18:18;18.70;79.50
26254;DHT22;53339;51.378;0.094;2023-06-22T07:20:46;18.80;79.50
26254;DHT22;53339;51.378;0.094;2023-06-22T07:23:14;18.90;79.30
26254;DHT22;53339;51.378;0.094;2023-06-22T07:25:41;19.00;79.20
26254;DHT22;53339;51.378;0.094;2023-06-22T07:28:09;19.10;79.10
26254;DHT22;53339;51.378;0.094;2023-06-22T07:30:37;19.20;79.00
26254;DHT22;53339;51.378;0.094;2023-06-22T07:33:04;19.30;79.00
26254;DHT22;53339;51.378;0.094;2023-06-22T07:35:35;19.40;79.00
26254;DHT22;53339;51.378;0.094;2023-06-22T07:38:03;19.50;78.60
26254;DHT22;53339;51.378;0.094;2023-06-22T07:40:33;19.50;78.30
26254;DHT22;53339;51.378;0.094;2023-06-22T07:43:02;19.50;78.20
26254;DHT22;53339;51.378;0.094;2023-06-22T07:45:31;19.60;78.30
26254;DHT22;53339;51.378;0.094;2023-06-22T07:48:01;19.60;78.50
26254;DHT22;53339;51.378;0.094;2023-06-22T07:50:29;19.70;78.40
26254;DHT22;53339;51.378;0.094;2023-06-22T07:52:57;19.80;78.50
26254;DHT22;53339;51.378;0.094;2023-06-22T07:55:25;19.90;78.10
26254;DHT22;53339;51.378;0.094;2023-06-22T07:57:52;20.10;77.90
26254;DHT22;53339;51.378;0.094;2023-06-22T08:00:20;20.20;77.80
26254;DHT22;53339;51.378;0.094;2023-06-22T08:02:48;20.30;77.50
26254;DHT22;53339;51.378;0.094;2023-06-22T08:05:16;20.40;77.40
26254;DHT22;53339;51.378;0.094;2023-06-22T08:07:49;20.50;77.40
26254;DHT22;53339;51.378;0.094;2023-06-22T08:10:17;20.60;77.10
26254;DHT22;53339;51.378;0.094;2023-06-22T08:12:45;20.70;76.60
26254;DHT22;53339;51.378;0.094;2023-06-22T08:15:13;20.80;76.50
26254;DHT22;53339;51.378;0.094;2023-06-22T08:17:41;20.90;76.60
26254;DHT22;53339;51.378;0.094;2023-06-22T08:20:09;21.00;76.40
26254;DHT22;53339;51.378;0.094;2023-06-22T08:22:42;21.00;76.10
26254;DHT22;53339;51.378;0.094;2023-06-22T08:25:11;21.20;76.10
26254;DHT22;53339;51.378;0.094;2023-06-22T08:27:39;21.20;76.10
26254;DHT22;53339;51.378;0.094;2023-06-22T08:30:09;21.40;76.10
26254;DHT22;53339;51.378;0.094;2023-06-22T08:32:38;21.50;75.90
26254;DHT22;53339;51.378;0.094;2023-06-22T08:35:06;21.60;75.30
26254;DHT22;53339;51.378;0.094;2023-06-22T08:37:36;21.70;75.30
26254;DHT22;53339;51.378;0.094;2023-06-22T08:40:08;21.80;75.30
26254;DHT22;53339;51.378;0.094;2023-06-22T08:42:37;21.90;75.10
26254;DHT22;53339;51.378;0.094;2023-06-22T08:45:06;22.00;75.10
26254;DHT22;53339;51.378;0.094;2023-06-22T08:47:34;22.20;74.50
26254;DHT22;53339;51.378;0.094;2023-06-22T08:50:02;22.20;73.90
26254;DHT22;53339;51.378;0.094;2023-06-22T08:52:31;22.30;73.40
26254;DHT22;53339;51.378;0.094;2023-06-22T08:54:59;22.40;73.50
26254;DHT22;53339;51.378;0.094;2023-06-22T08:57:28;22.40;73.40
26254;DHT22;53339;51.378;0.094;2023-06-22T08:59:56;22.50;73.70
26254;DHT22;53339;51.378;0.094;2023-06-22T09:02:28;22.60;73.70
26254;DHT22;53339;51.378;0.094;2023-06-22T09:04:59;22.70;73.70
26254;DHT22;53339;51.378;0.094;2023-06-22T09:07:27;22.80;73.50
26254;DHT22;53339;51.378;0.094;2023-06-22T09:09:55;23.00;73.50
26254;DHT22;53339;51.378;0.094;2023-06-22T09:12:23;23.10;73.40
26254;DHT22;53339;51.378;0.094;2023-06-22T09:14:54;23.20;73.40
26254;DHT22;53339;51.378;0.094;2023-06-22T09:17:22;23.20;72.60
26254;DHT22;53339;51.378;0.094;2023-06-22T09:19:50;23.30;72.50
26254;DHT22;53339;51.378;0.094;2023-06-22T09:22:18;23.40;72.70
26254;DHT22;53339;51.378;0.094;2023-06-22T09:24:46;23.70;72.10
26254;DHT22;53339;51.378;0.094;2023-06-22T09:27:13;23.90;72.10
26254;DHT22;53339;51.378;0.094;2023-06-22T09:29:41;24.20;71.70
26254;DHT22;53339;51.378;0.094;2023-06-22T09:32:09;24.50;71.20
26254;DHT22;53339;51.378;0.094;2023-06-22T09:34:37;24.70;70.60
26254;DHT22;53339;51.378;0.094;2023-06-22T09:37:07;25.10;70.60
26254;DHT22;53339;51.378;0.094;2023-06-22T09:39:35;25.20;68.50
26254;DHT22;53339;51.378;0.094;2023-06-22T09:42:04;25.40;67.50
26254;DHT22;53339;51.378;0.094;2023-06-22T09:44:33;25.60;68.20
26254;DHT22;53339;51.378;0.094;2023-06-22T09:47:02;25.70;68.00
26254;DHT22;53339;51.378;0.094;2023-06-22T09:49:29;25.80;67.40
26254;DHT22;53339;51.378;0.094;2023-06-22T09:52:04;25.90;65.80
26254;DHT22;53339;51.378;0.094;2023-06-22T09:54:32;26.00;65.80
26254;DHT22;53339;51.378;0.094;2023-06-22T09:56:59;26.00;64.40
26254;DHT22;53339;51.378;0.094;2023-06-22T09:59:27;25.90;64.40
26254;DHT22;53339;51.378;0.094;2023-06-22T10:01:55;25.90;66.30
26254;DHT22;53339;51.378;0.094;2023-06-22T10:04:23;26.00;65.90
26254;DHT22;53339;51.378;0.094;2023-06-22T10:06:52;26.10;66.20
26254;DHT22;53339;51.378;0.094;2023-06-22T10:09:19;26.10;65.00
26254;DHT22;53339;51.378;0.094;2023-06-22T10:11:48;26.10;64.50
26254;DHT22;53339;51.378;0.094;2023-06-22T10:14:16;26.00;63.60
26254;DHT22;53339;51.378;0.094;2023-06-22T10:16:44;25.90;61.90
26254;DHT22;53339;51.378;0.094;2023-06-22T10:19:12;25.90;63.50
26254;DHT22;53339;51.378;0.094;2023-06-22T10:21:40;25.70;61.90
26254;DHT22;53339;51.378;0.094;2023-06-22T10:24:08;25.60;61.50
26254;DHT22;53339;51.378;0.094;2023-06-22T10:26:36;25.40;62.40
26254;DHT22;53339;51.378;0.094;2023-06-22T10:29:04;25.20;62.60
26254;DHT22;53339;51.378;0.094;2023-06-22T10:31:35;25.10;62.40
26254;DHT22;53339;51.378;0.094;2023-06-22T10:34:03;25.10;62.80
26254;DHT22;53339;51.378;0.094;2023-06-22T10:36:31;25.20;63.20
26254;DHT22;53339;51.378;0.094;2023-06-22T10:38:59;25.20;61.70
26254;DHT22;53339;51.378;0.094;2023-06-22T10:41:29;25.10;61.70
26254;DHT22;53339;51.378;0.094;2023-06-22T10:43:57;24.90;62.80
26254;DHT22;53339;51.378;0.094;2023-06-22T10:46:25;24.70;62.00
26254;DHT22;53339;51.378;0.094;2023-06-22T10:48:55;24.60;62.40
26254;DHT22;53339;51.378;0.094;2023-06-22T10:51:25;24.60;63.00
26254;DHT22;53339;51.378;0.094;2023-06-22T10:53:53;24.90;63.00
26254;DHT22;53339;51.378;0.094;2023-06-22T10:56:21;25.20;61.50
26254;DHT22;53339;51.378;0.094;2023-06-22T10:58:48;25.50;59.80
26254;DHT22;53339;51.378;0.094;2023-06-22T11:01:16;25.80;58.90
26254;DHT22;53339;51.378;0.094;2023-06-22T11:04:01;26.10;58.80
26254;DHT22;53339;51.378;0.094;2023-06-22T11:06:29;26.40;58.60
26254;DHT22;53339;51.378;0.094;2023-06-22T11:08:57;26.60;57.40
26254;DHT22;53339;51.378;0.094;2023-06-22T11:11:33;26.60;59.00
26254;DHT22;53339;51.378;0.094;2023-06-22T11:14:00;26.80;58.30
26254;DHT22;53339;51.378;0.094;2023-06-22T11:16:28;27.10;58.00
26254;DHT22;53339;51.378;0.094;2023-06-22T11:18:56;27.30;55.50
26254;DHT22;53339;51.378;0.094;2023-06-22T11:21:23;27.40;55.10
26254;DHT22;53339;51.378;0.094;2023-06-22T11:23:51;27.50;54.90
26254;DHT22;53339;51.378;0.094;2023-06-22T11:26:19;27.50;53.30
26254;DHT22;53339;51.378;0.094;2023-06-22T11:28:48;27.20;52.40
26254;DHT22;53339;51.378;0.094;2023-06-22T11:31:16;27.10;51.80
26254;DHT22;53339;51.378;0.094;2023-06-22T11:33:52;27.00;50.80
26254;DHT22;53339;51.378;0.094;2023-06-22T11:36:20;26.70;52.20
26254;DHT22;53339;51.378;0.094;2023-06-22T11:38:52;26.50;52.50
26254;DHT22;53339;51.378;0.094;2023-06-22T11:41:20;26.20;53.00
26254;DHT22;53339;51.378;0.094;2023-06-22T11:43:47;26.20;54.90
26254;DHT22;53339;51.378;0.094;2023-06-22T11:46:15;26.40;55.10
26254;DHT22;53339;51.378;0.094;2023-06-22T11:48:43;26.80;55.50
26254;DHT22;53339;51.378;0.094;2023-06-22T11:51:11;27.30;54.60
26254;DHT22;53339;51.378;0.094;2023-06-22T11:53:39;27.90;54.40
26254;DHT22;53339;51.378;0.094;2023-06-22T11:56:07;28.50;53.70
26254;DHT22;53339;51.378;0.094;2023-06-22T11:58:36;28.90;51.90
26254;DHT22;53339;51.378;0.094;2023-06-22T12:01:04;29.10;52.10
26254;DHT22;53339;51.378;0.094;2023-06-22T12:03:32;29.40;52.20
26254;DHT22;53339;51.378;0.094;2023-06-22T12:06:00;29.50;52.10
26254;DHT22;53339;51.378;0.094;2023-06-22T12:08:28;29.20;49.30
26254;DHT22;53339;51.378;0.094;2023-06-22T12:10:55;28.80;50.20
26254;DHT22;53339;51.378;0.094;2023-06-22T12:13:23;28.30;51.50
26254;DHT22;53339;51.378;0.094;2023-06-22T12:15:51;28.00;51.70
26254;DHT22;53339;51.378;0.094;2023-06-22T12:18:19;27.70;52.10
26254;DHT22;53339;51.378;0.094;2023-06-22T12:20:48;27.30;49.90
26254;DHT22;53339;51.378;0.094;2023-06-22T12:23:16;27.00;50.60
26254;DHT22;53339;51.378;0.094;2023-06-22T12:25:45;27.00;51.80
26254;DHT22;53339;51.378;0.094;2023-06-22T12:28:13;27.40;52.00
26254;DHT22;53339;51.378;0.094;2023-06-22T12:30:41;28.10;50.00
26254;DHT22;53339;51.378;0.094;2023-06-22T12:33:09;28.90;47.40
26254;DHT22;53339;51.378;0.094;2023-06-22T12:35:37;29.50;46.60
26254;DHT22;53339;51.378;0.094;2023-06-22T12:38:05;30.00;45.40
26254;DHT22;53339;51.378;0.094;2023-06-22T12:40:34;30.40;45.30
26254;DHT22;53339;51.378;0.094;2023-06-22T12:43:02;30.90;45.30
26254;DHT22;53339;51.378;0.094;2023-06-22T12:45:30;31.00;42.80
26254;DHT22;53339;51.378;0.094;2023-06-22T12:48:01;30.60;42.90
26254;DHT22;53339;51.378;0.094;2023-06-22T12:50:32;29.90;45.50
26254;DHT22;53339;51.378;0.094;2023-06-22T12:53:00;29.40;46.30
26254;DHT22;53339;51.378;0.094;2023-06-22T12:55:30;29.20;46.90
26254;DHT22;53339;51.378;0.094;2023-06-22T12:57:58;29.70;45.80
26254;DHT22;53339;51.378;0.094;2023-06-22T13:00:25;30.60;45.90
26254;DHT22;53339;51.378;0.094;2023-06-22T13:02:53;31.50;43.80
26254;DHT22;53339;51.378;0.094;2023-06-22T13:05:23;32.20;42.90
26254;DHT22;53339;51.378;0.094;2023-06-22T13:07:51;32.90;42.10
26254;DHT22;53339;51.378;0.094;2023-06-22T13:10:18;33.40;42.00
26254;DHT22;53339;51.378;0.094;2023-06-22T13:12:46;33.80;40.40
26254;DHT22;53339;51.378;0.094;2023-06-22T13:15:14;34.00;40.70
26254;DHT22;53339;51.378;0.094;2023-06-22T13:17:42;34.30;38.70
26254;DHT22;53339;51.378;0.094;2023-06-22T13:20:10;34.70;40.10
26254;DHT22;53339;51.378;0.094;2023-06-22T13:22:38;35.20;40.30
26254;DHT22;53339;51.378;0.094;2023-06-22T13:25:11;35.70;40.70
26254;DHT22;53339;51.378;0.094;2023-06-22T13:27:41;36.20;39.10
26254;DHT22;53339;51.378;0.094;2023-06-22T13:30:09;36.10;38.80
26254;DHT22;53339;51.378;0.094;2023-06-22T13:32:40;35.70;40.50
26254;DHT22;53339;51.378;0.094;2023-06-22T13:35:12;35.30;39.30
26254;DHT22;53339;51.378;0.094;2023-06-22T13:37:39;35.00;40.20
26254;DHT22;53339;51.378;0.094;2023-06-22T13:40:08;34.70;40.80
26254;DHT22;53339;51.378;0.094;2023-06-22T13:42:35;34.20;40.90
26254;DHT22;53339;51.378;0.094;2023-06-22T13:45:04;33.30;40.90
26254;DHT22;53339;51.378;0.094;2023-06-22T13:47:32;32.30;41.60
26254;DHT22;53339;51.378;0.094;2023-06-22T13:50:00;31.30;38.40
26254;DHT22;53339;51.378;0.094;2023-06-22T13:52:28;30.40;40.30
26254;DHT22;53339;51.378;0.094;2023-06-22T13:54:56;29.90;41.90
26254;DHT22;53339;51.378;0.094;2023-06-22T13:57:23;30.10;41.20
26254;DHT22;53339;51.378;0.094;2023-06-22T13:59:52;31.00;40.60
26254;DHT22;53339;51.378;0.094;2023-06-22T14:02:20;31.70;40.30
26254;DHT22;53339;51.378;0.094;2023-06-22T14:04:47;32.50;40.10
26254;DHT22;53339;51.378;0.094;2023-06-22T14:07:15;33.10;39.60
26254;DHT22;53339;51.378;0.094;2023-06-22T14:09:46;33.20;39.10
26254;DHT22;53339;51.378;0.094;2023-06-22T14:12:14;33.60;38.40
26254;DHT22;53339;51.378;0.094;2023-06-22T14:14:43;34.20;38.00
26254;DHT22;53339;51.378;0.094;2023-06-22T14:17:11;34.90;35.90
26254;DHT22;53339;51.378;0.094;2023-06-22T14:19:39;35.70;36.80
26254;DHT22;53339;51.378;0.094;2023-06-22T14:22:07;36.60;35.40
26254;DHT22;53339;51.378;0.094;2023-06-22T14:24:34;37.30;35.30
26254;DHT22;53339;51.378;0.094;2023-06-22T14:27:02;37.80;29.80
26254;DHT22;53339;51.378;0.094;2023-06-22T14:29:30;38.10;33.50
26254;DHT22;53339;51.378;0.094;2023-06-22T14:31:59;38.40;32.10
26254;DHT22;53339;51.378;0.094;2023-06-22T14:34:27;38.40;33.00
26254;DHT22;53339;51.378;0.094;2023-06-22T14:36:54;37.70;33.50
26254;DHT22;53339;51.378;0.094;2023-06-22T14:39:22;36.80;33.20
26254;DHT22;53339;51.378;0.094;2023-06-22T14:41:50;35.90;33.50
26254;DHT22;53339;51.378;0.094;2023-06-22T14:44:18;35.00;35.10
26254;DHT22;53339;51.378;0.094;2023-06-22T14:46:46;33.90;36.40
26254;DHT22;53339;51.378;0.094;2023-06-22T14:49:13;33.60;37.00
26254;DHT22;53339;51.378;0.094;2023-06-22T14:51:41;33.60;36.20
26254;DHT22;53339;51.378;0.094;2023-06-22T14:54:09;34.00;35.10
26254;DHT22;53339;51.378;0.094;2023-06-22T14:56:37;34.50;34.80
26254;DHT22;53339;51.378;0.094;2023-06-22T14:59:04;35.20;32.50
26254;DHT22;53339;51.378;0.094;2023-06-22T15:01:32;35.90;32.80
26254;DHT22;53339;51.378;0.094;2023-06-22T15:04:00;36.50;30.80
26254;DHT22;53339;51.378;0.094;2023-06-22T15:06:28;36.90;30.30
26254;DHT22;53339;51.378;0.094;2023-06-22T15:08:56;37.00;26.90
26254;DHT22;53339;51.378;0.094;2023-06-22T15:11:23;37.00;28.90
26254;DHT22;53339;51.378;0.094;2023-06-22T15:13:51;37.50;29.50
26254;DHT22;53339;51.378;0.094;2023-06-22T15:16:19;38.10;28.90
26254;DHT22;53339;51.378;0.094;2023-06-22T15:18:47;38.40;28.90
26254;DHT22;53339;51.378;0.094;2023-06-22T15:21:16;38.40;28.70
26254;DHT22;53339;51.378;0.094;2023-06-22T15:23:44;38.70;29.10
26254;DHT22;53339;51.378;0.094;2023-06-22T15:26:12;39.10;29.10
26254;DHT22;53339;51.378;0.094;2023-06-22T15:28:40;39.30;29.50
26254;DHT22;53339;51.378;0.094;2023-06-22T15:31:08;39.40;29.60
26254;DHT22;53339;51.378;0.094;2023-06-22T15:33:36;39.50;29.80
26254;DHT22;53339;51.378;0.094;2023-06-22T15:36:04;39.00;29.90
26254;DHT22;53339;51.378;0.094;2023-06-22T15:38:34;38.50;30.50
26254;DHT22;53339;51.378;0.094;2023-06-22T15:41:02;37.90;30.90
26254;DHT22;53339;51.378;0.094;2023-06-22T15:43:29;37.40;31.00